GCRR/ACE METAR and TAF weather

Enter ICAO airport designator
Station Type Date Time Source
GCRR METAR 2018/07/21 04:00 UTC NOAA

GCRR 210400Z AUTO 36027G37KT 9999 NCD 21/18 Q1014


Station Type Date Time Source
GCRR Decoded METAR 2018/07/21 04:00 UTC NOAA

Lanzarote / Aeropuerto, Spain (GCRR) 28-57N 013-36W 21M
Jul 21, 2018 - 12:00 AM EDT / 2018.07.21 0400 UTC
Wind: from the N (360 degrees) at 31 MPH (27 KT) gusting to 43 MPH (37 KT):0
Visibility: greater than 7 mile(s):0
Temperature: 69 F (21 C)
Dew Point: 64 F (18 C)
Relative Humidity: 82%
Pressure (altimeter): 29.94 in. Hg (1014 hPa)
ob: GCRR 210400Z AUTO 36027G37KT 9999 NCD 21/18 Q1014
cycle: 4

Station Type Date Time Source
GCRR TAF 2018/07/21 03:27 UTC NOAA

TAF GCRR 210200Z 2103/2203 01023KT 9999 FEW020 TX28/2114Z TN20/2105Z
TEMPO 2103/2121 01025G35KT


Example: see airport list